Leonardo — IAZA — position and weather

sailwx.info

Track history (hours):
 
Tides and Currents Weather Stations Pressure Air Temp Water Temp Dewpoint Dewpoint Depression Visibility Wind Speed Wind Dir Waves Ship Positions

Leonardo

Last reported at 2016-Jun-27 19:32 UTC. Time now 2016-Jun-27 20:33 UTC.
Position N 44°05' E 009°49'.

Length 28 m; draft 2.7 m.

MMSI: 247155800.

Date/timePositionNaut miles runAvg speedWind from/ knotsBaromVisibWave heightAir tempDewpointWater temp
2016-Jun-27 19:32N 44°05' E 009°49'0 0.0
2016-Jun-27 18:32N 44°05' E 009°49'0 0.0
2016-Jun-27 17:31N 44°05' E 009°49'0 0.0
2016-Jun-27 16:32N 44°05' E 009°49'0 0.0
2016-Jun-27 15:33N 44°05' E 009°49'0 0.0
2016-Jun-27 14:33N 44°05' E 009°49'0 0.0
2016-Jun-27 13:33N 44°05' E 009°49'0 0.0
2016-Jun-27 12:32N 44°05' E 009°49'0 0.0
2016-Jun-27 11:32N 44°05' E 009°49'0 0.0
2016-Jun-27 10:19N 44°05' E 009°49'0 0.0
2016-Jun-27 09:31N 44°05' E 009°49'0 0.0
2016-Jun-27 08:33N 44°05' E 009°49'0 0.0
2016-Jun-27 07:33N 44°05' E 009°49'0 0.0
2016-Jun-27 06:30N 44°05' E 009°49'0 0.0
2016-Jun-27 05:32N 44°05' E 009°49'0 0.0
2016-Jun-27 04:32N 44°05' E 009°49'0 0.0
2016-Jun-27 03:31N 44°05' E 009°49'0 0.0
2016-Jun-27 02:31N 44°05' E 009°49'0 0.0
2016-Jun-27 01:33N 44°05' E 009°49'0 0.0
2016-Jun-27 00:33N 44°05' E 009°49'0 0.0
2016-Jun-26 23:33N 44°05' E 009°49'0 0.0
2016-Jun-26 22:32N 44°05' E 009°49'0 0.0
2016-Jun-26 21:32N 44°05' E 009°49'0 0.0
2016-Jun-26 20:28N 44°05' E 009°49'0 0.0
2016-Jun-26 19:31N 44°05' E 009°49'0 0.0
2016-Jun-26 18:33N 44°05' E 009°49'0 0.0
2016-Jun-26 17:33N 44°05' E 009°49'0 0.0
2016-Jun-26 16:29N 44°05' E 009°49'0 0.0
2016-Jun-26 15:29N 44°05' E 009°49'0 0.0
2016-Jun-26 14:32N 44°05' E 009°49'0 0.0
2016-Jun-26 13:31N 44°05' E 009°49'0 0.0
2016-Jun-26 12:28N 44°05' E 009°49'0 0.0
2016-Jun-26 11:33N 44°05' E 009°49'0 0.0
2016-Jun-26 10:33N 44°05' E 009°49'0 0.0
2016-Jun-26 09:32N 44°05' E 009°49'0 0.0
2016-Jun-26 08:32N 44°05' E 009°49'0 0.0
2016-Jun-26 07:32N 44°05' E 009°49'0 0.0
2016-Jun-26 06:31N 44°05' E 009°49'0 0.0
2016-Jun-26 05:31N 44°05' E 009°49'0 0.0
2016-Jun-26 04:30N 44°05' E 009°49'0 0.0
2016-Jun-26 03:33N 44°05' E 009°49'0 0.0
2016-Jun-26 02:32N 44°05' E 009°49'0 0.0
2016-Jun-26 01:32N 44°05' E 009°49'0 0.0
2016-Jun-26 00:32N 44°05' E 009°49'0 0.0
2016-Jun-25 23:31N 44°05' E 009°49'0 0.0
2016-Jun-25 22:31N 44°05' E 009°49'0 0.0
2016-Jun-25 21:33N 44°05' E 009°49'0 0.0
2016-Jun-25 20:33N 44°05' E 009°49'0 0.0
2016-Jun-25 19:29N 44°05' E 009°49'0 0.0
2016-Jun-25 18:32N 44°05' E 009°49'0 0.0
2016-Jun-25 17:32N 44°05' E 009°49'0 0.0
2016-Jun-25 16:31N 44°05' E 009°49'3 2.9
2016-Jun-25 15:33N 44°03' E 009°52'8 7.6
2016-Jun-25 14:33N 43°56' E 009°51'4 4.0
2016-Jun-25 13:33N 43°52' E 009°51'0 0.1
2016-Jun-25 12:33N 43°52' E 009°51'2 2.3
2016-Jun-25 11:34N 43°53' E 009°53'5 4.7
2016-Jun-25 10:33N 43°50' E 009°49'0 0.1
2016-Jun-25 09:33N 43°50' E 009°49'2 2.4
2016-Jun-25 08:33N 43°52' E 009°51'4 3.6
2016-Jun-25 07:33N 43°55' E 009°51'8 8.2
2016-Jun-25 06:33N 44°04' E 009°51'2 2.1
2016-Jun-25 05:32N 44°05' E 009°49'0 0.0
2016-Jun-25 04:28N 44°05' E 009°49'0 0.0
2016-Jun-25 03:31N 44°05' E 009°49'0 0.0
2016-Jun-25 02:34N 44°05' E 009°49'0 0.0
2016-Jun-25 01:33N 44°05' E 009°49'0 0.0
2016-Jun-25 00:33N 44°05' E 009°49'0 0.0
2016-Jun-24 23:32N 44°05' E 009°49'0 0.0
2016-Jun-24 22:32N 44°05' E 009°49'0 0.0
2016-Jun-24 21:31N 44°05' E 009°49'0 0.0
2016-Jun-24 20:31N 44°05' E 009°49'0 0.0
2016-Jun-24 19:34N 44°05' E 009°49'0 0.0
2016-Jun-24 18:33N 44°05' E 009°49'0 0.0
2016-Jun-24 17:30N 44°05' E 009°49'0 0.0
2016-Jun-24 16:32N 44°05' E 009°49'6 5.7
2016-Jun-24 15:33N 43°60' E 009°51'8 7.7
2016-Jun-24 14:33N 43°52' E 009°50'1 1.2
2016-Jun-24 13:33N 43°51' E 009°50'0 0.0
2016-Jun-24 12:33N 43°51' E 009°50'0 0.0
2016-Jun-24 11:33N 43°51' E 009°50'7 7.2
2016-Jun-24 10:33N 43°46' E 009°43'2 2.4
2016-Jun-24 09:33N 43°44' E 009°41'5 4.8
2016-Jun-24 08:33N 43°48' E 009°44'8 8.1
2016-Jun-24 07:33N 43°56' E 009°49'10 3.1
2016-Jun-24 04:28N 44°05' E 009°49'0 0.0
2016-Jun-24 03:31N 44°05' E 009°49'0 0.0
2016-Jun-24 02:33N 44°05' E 009°49'0 0.0
2016-Jun-24 01:33N 44°05' E 009°49'0 0.0
2016-Jun-24 00:32N 44°05' E 009°49'0 0.0
2016-Jun-23 23:29N 44°05' E 009°49'0 0.0
2016-Jun-23 22:28N 44°05' E 009°49'0 0.0
2016-Jun-23 21:31N 44°05' E 009°49'0 0.0
2016-Jun-23 20:28N 44°05' E 009°49'0 0.0
2016-Jun-23 19:33N 44°05' E 009°49'0 0.0
2016-Jun-23 18:33N 44°05' E 009°49'0 0.0
2016-Jun-23 17:29N 44°05' E 009°49'2 2.4
2016-Jun-23 16:33N 44°04' E 009°52'8 7.7
2016-Jun-23 15:33N 43°56' E 009°51'6 6.0
2016-Jun-23 14:33N 43°50' E 009°50'0 0.0
2016-Jun-23 13:33N 43°50' E 009°50'0 0.0
2016-Jun-23 12:33N 43°50' E 009°50'0 0.0
2016-Jun-23 11:33N 43°50' E 009°50'1 1.4
2016-Jun-23 10:33N 43°51' E 009°51'0 0.1
2016-Jun-23 09:33N 43°51' E 009°51'0 0.2
2016-Jun-23 08:33N 43°52' E 009°51'7 6.5
2016-Jun-23 07:33N 43°58' E 009°52'7 3.7
2016-Jun-23 05:33N 44°05' E 009°49'0 0.0
2016-Jun-23 04:32N 44°05' E 009°49'0 0.0
2016-Jun-23 03:29N 44°05' E 009°49'0 0.0
2016-Jun-23 02:31N 44°05' E 009°49'0 0.0
2016-Jun-23 01:28N 44°05' E 009°49'0 0.0
2016-Jun-23 00:33N 44°05' E 009°49'0 0.0
2016-Jun-22 23:33N 44°05' E 009°49'0 0.0
2016-Jun-22 22:33N 44°05' E 009°49'0 0.0
2016-Jun-22 21:32N 44°05' E 009°49'0 0.0
2016-Jun-22 20:32N 44°05' E 009°49'0 0.0
2016-Jun-22 19:31N 44°05' E 009°49'0 0.0
2016-Jun-22 18:31N 44°05' E 009°49'0 0.0
2016-Jun-22 17:33N 44°05' E 009°49'0 0.0
2016-Jun-22 16:33N 44°05' E 009°49'6 6.4
2016-Jun-22 15:33N 43°59' E 009°52'7 7.2
2016-Jun-22 14:33N 43°52' E 009°50'0 0.4
2016-Jun-22 13:33N 43°52' E 009°51'0 0.3
2016-Jun-22 12:34N 43°52' E 009°50'0 0.4
2016-Jun-22 11:33N 43°52' E 009°51'0 0.0
2016-Jun-22 10:34N 43°52' E 009°51'0 0.4
2016-Jun-22 09:33N 43°51' E 009°51'1 1.5
2016-Jun-22 08:33N 43°53' E 009°51'8 8.2
2016-Jun-22 07:33N 44°01' E 009°52'5 4.5
2016-Jun-22 06:33N 44°05' E 009°49'0 0.0
2016-Jun-22 05:33N 44°05' E 009°49'0 0.0
2016-Jun-22 04:32N 44°05' E 009°49'0 0.0
2016-Jun-22 03:32N 44°05' E 009°49'0 0.0
2016-Jun-22 02:31N 44°05' E 009°49'0 0.0
2016-Jun-22 01:28N 44°05' E 009°49'0 0.0
2016-Jun-22 00:33N 44°05' E 009°49'0 0.0
2016-Jun-21 23:33N 44°05' E 009°49'0 0.0
2016-Jun-21 22:33N 44°05' E 009°49'0 0.0
2016-Jun-21 21:32N 44°05' E 009°49'0 0.0
2016-Jun-21 20:32N 44°05' E 009°49'0 0.0
2016-Jun-21 19:31N 44°05' E 009°49'0 0.0
2016-Jun-21 18:31N 44°05' E 009°49'0 0.0
2016-Jun-21 17:33N 44°05' E 009°49'3 2.6
2016-Jun-21 16:33N 44°03' E 009°52'8 7.6
2016-Jun-21 15:33N 43°56' E 009°51'6 6.1
2016-Jun-21 14:33N 43°50' E 009°49'0 0.2
2016-Jun-21 13:33N 43°50' E 009°49'0 0.2
2016-Jun-21 12:33N 43°50' E 009°50'1 0.9
2016-Jun-21 11:33N 43°49' E 009°48'6 6.5
2016-Jun-21 10:33N 43°45' E 009°42'1 0.7
2016-Jun-21 09:34N 43°44' E 009°41'7 6.8
2016-Jun-21 08:33N 43°51' E 009°45'8 8.0
2016-Jun-21 07:33N 43°58' E 009°50'7 2.4
2016-Jun-21 04:28N 44°05' E 009°49'0 0.0
2016-Jun-21 03:34N 44°05' E 009°49'0 0.0
2016-Jun-21 02:33N 44°05' E 009°49'0 0.0
2016-Jun-21 01:33N 44°05' E 009°49'0 0.0
2016-Jun-21 00:32N 44°05' E 009°49'0 0.0
2016-Jun-20 23:32N 44°05' E 009°49'0 0.0
2016-Jun-20 22:31N 44°05' E 009°49'0 0.0
2016-Jun-20 21:31N 44°05' E 009°49'0 0.0
2016-Jun-20 20:33N 44°05' E 009°49'0 0.0
2016-Jun-20 19:33N 44°05' E 009°49'0 0.0
2016-Jun-20 18:30N 44°05' E 009°49'0 0.0
2016-Jun-20 17:32N 44°05' E 009°49'0 0.0
2016-Jun-20 16:32N 44°05' E 009°49'0 0.0
2016-Jun-20 15:31N 44°05' E 009°49'0 0.0
2016-Jun-20 14:28N 44°05' E 009°49'0 0.0
2016-Jun-20 13:33N 44°05' E 009°49'0 0.0
2016-Jun-20 12:33N 44°05' E 009°49'0 0.0
2016-Jun-20 11:33N 44°05' E 009°49'0 0.0
2016-Jun-20 10:32N 44°05' E 009°49'0 0.0
2016-Jun-20 09:32N 44°05' E 009°49'0 0.0
2016-Jun-20 08:31N 44°05' E 009°49'0 0.0
2016-Jun-20 07:31N 44°05' E 009°49'0 0.0
2016-Jun-20 06:33N 44°05' E 009°49'0 0.0
2016-Jun-20 05:33N 44°05' E 009°49'0 0.0
2016-Jun-20 04:33N 44°05' E 009°49'0 0.0
2016-Jun-20 03:29N 44°05' E 009°49'0 0.0
2016-Jun-20 02:32N 44°05' E 009°49'0 0.0
2016-Jun-20 01:28N 44°05' E 009°49'0 0.0
2016-Jun-20 00:31N 44°05' E 009°49'0 0.0
2016-Jun-19 23:33N 44°05' E 009°49'0 0.0
2016-Jun-19 22:33N 44°05' E 009°49'0 0.0
2016-Jun-19 21:33N 44°05' E 009°49'0 0.0
2016-Jun-19 20:32N 44°05' E 009°49'0 0.0
2016-Jun-19 19:32N 44°05' E 009°49'0 0.0
2016-Jun-19 18:31N 44°05' E 009°49'0 0.0
2016-Jun-19 17:31N 44°05' E 009°49'0 0.0
2016-Jun-19 16:33N 44°05' E 009°49'0 0.0
2016-Jun-19 15:33N 44°05' E 009°49'0 0.0
2016-Jun-19 14:32N 44°05' E 009°49'0 0.0
2016-Jun-19 13:32N 44°05' E 009°49'0 0.0
2016-Jun-19 12:32N 44°05' E 009°49'0 0.0
2016-Jun-19 11:31N 44°05' E 009°49'0 0.0
2016-Jun-19 10:31N 44°05' E 009°49'0 0.0
2016-Jun-19 09:33N 44°05' E 009°49'0 0.0
2016-Jun-19 08:33N 44°05' E 009°49'0 0.0
2016-Jun-19 07:29N 44°05' E 009°49'0 0.0
2016-Jun-19 06:32N 44°05' E 009°49'0 0.0
2016-Jun-19 05:32N 44°05' E 009°49'0 0.0
2016-Jun-19 04:31N 44°05' E 009°49'0 0.0
2016-Jun-19 03:31N 44°05' E 009°49'0 0.0
2016-Jun-19 02:33N 44°05' E 009°49'0 0.0
2016-Jun-19 01:33N 44°05' E 009°49'0 0.0
2016-Jun-19 00:32N 44°05' E 009°49'0 0.0
2016-Jun-18 23:32N 44°05' E 009°49'0 0.0
2016-Jun-18 22:32N 44°05' E 009°49'0 0.0
2016-Jun-18 21:31N 44°05' E 009°49'0 0.0
2016-Jun-18 20:31N 44°05' E 009°49'0 0.0
2016-Jun-18 19:33N 44°05' E 009°49'0 0.0
2016-Jun-18 18:33N 44°05' E 009°49'0 0.0
2016-Jun-18 17:29N 44°05' E 009°49'0 0.0
2016-Jun-18 16:29N 44°05' E 009°49'0 0.0
2016-Jun-18 15:31N 44°05' E 009°49'0 0.0
2016-Jun-18 14:31N 44°05' E 009°49'0 0.0
2016-Jun-18 13:31N 44°05' E 009°49'0 0.0
2016-Jun-18 12:33N 44°05' E 009°49'0 0.0
2016-Jun-18 11:33N 44°05' E 009°49'0 0.0
2016-Jun-18 10:32N 44°05' E 009°49'0 0.0
2016-Jun-18 09:32N 44°05' E 009°49'0 0.0
2016-Jun-18 08:31N 44°05' E 009°49'0 0.0
2016-Jun-18 07:31N 44°05' E 009°49'0 0.0
2016-Jun-18 06:31N 44°05' E 009°49'0 0.0
2016-Jun-18 05:33N 44°05' E 009°49'0 0.0
2016-Jun-18 04:30N 44°05' E 009°49'0 0.0
2016-Jun-18 03:32N 44°05' E 009°49'0 0.0
2016-Jun-18 02:32N 44°05' E 009°49'0 0.0
2016-Jun-18 01:31N 44°05' E 009°49'0 0.0
2016-Jun-18 00:31N 44°05' E 009°49'0 0.0
2016-Jun-17 23:31N 44°05' E 009°49'0 0.0
2016-Jun-17 22:33N 44°05' E 009°49'0 0.0
2016-Jun-17 21:33N 44°05' E 009°49'0 0.0
2016-Jun-17 20:32N 44°05' E 009°49'  
Track history (hours):
 
Tides and Currents Weather Stations Pressure Air Temp Water Temp Dewpoint Dewpoint Depression Visibility Wind Speed Wind Dir Waves Ship Positions

Leonardo

Last reported at 2016-Jun-27 19:32 UTC. Time now 2016-Jun-27 20:33 UTC.
Position N 44°05' E 009°49'.

Length 28 m; draft 2.7 m.

MMSI: 247155800.

Date/timePositionNaut miles runAvg speedWind from/ knotsBaromVisibWave heightAir tempDewpointWater temp
2016-Jun-27 19:32N 44°05' E 009°49'0 0.0
2016-Jun-27 18:32N 44°05' E 009°49'0 0.0
2016-Jun-27 17:31N 44°05' E 009°49'0 0.0
2016-Jun-27 16:32N 44°05' E 009°49'0 0.0
2016-Jun-27 15:33N 44°05' E 009°49'0 0.0
2016-Jun-27 14:33N 44°05' E 009°49'0 0.0
2016-Jun-27 13:33N 44°05' E 009°49'0 0.0
2016-Jun-27 12:32N 44°05' E 009°49'0 0.0
2016-Jun-27 11:32N 44°05' E 009°49'0 0.0
2016-Jun-27 10:19N 44°05' E 009°49'0 0.0
2016-Jun-27 09:31N 44°05' E 009°49'0 0.0
2016-Jun-27 08:33N 44°05' E 009°49'0 0.0
2016-Jun-27 07:33N 44°05' E 009°49'0 0.0
2016-Jun-27 06:30N 44°05' E 009°49'0 0.0
2016-Jun-27 05:32N 44°05' E 009°49'0 0.0
2016-Jun-27 04:32N 44°05' E 009°49'0 0.0
2016-Jun-27 03:31N 44°05' E 009°49'0 0.0
2016-Jun-27 02:31N 44°05' E 009°49'0 0.0
2016-Jun-27 01:33N 44°05' E 009°49'0 0.0
2016-Jun-27 00:33N 44°05' E 009°49'0 0.0
2016-Jun-26 23:33N 44°05' E 009°49'0 0.0
2016-Jun-26 22:32N 44°05' E 009°49'0 0.0
2016-Jun-26 21:32N 44°05' E 009°49'0 0.0
2016-Jun-26 20:28N 44°05' E 009°49'0 0.0
2016-Jun-26 19:31N 44°05' E 009°49'0 0.0
2016-Jun-26 18:33N 44°05' E 009°49'0 0.0
2016-Jun-26 17:33N 44°05' E 009°49'0 0.0
2016-Jun-26 16:29N 44°05' E 009°49'0 0.0
2016-Jun-26 15:29N 44°05' E 009°49'0 0.0
2016-Jun-26 14:32N 44°05' E 009°49'0 0.0
2016-Jun-26 13:31N 44°05' E 009°49'0 0.0
2016-Jun-26 12:28N 44°05' E 009°49'0 0.0
2016-Jun-26 11:33N 44°05' E 009°49'0 0.0
2016-Jun-26 10:33N 44°05' E 009°49'0 0.0
2016-Jun-26 09:32N 44°05' E 009°49'0 0.0
2016-Jun-26 08:32N 44°05' E 009°49'0 0.0
2016-Jun-26 07:32N 44°05' E 009°49'0 0.0
2016-Jun-26 06:31N 44°05' E 009°49'0 0.0
2016-Jun-26 05:31N 44°05' E 009°49'0 0.0
2016-Jun-26 04:30N 44°05' E 009°49'0 0.0
2016-Jun-26 03:33N 44°05' E 009°49'0 0.0
2016-Jun-26 02:32N 44°05' E 009°49'0 0.0
2016-Jun-26 01:32N 44°05' E 009°49'0 0.0
2016-Jun-26 00:32N 44°05' E 009°49'0 0.0
2016-Jun-25 23:31N 44°05' E 009°49'0 0.0
2016-Jun-25 22:31N 44°05' E 009°49'0 0.0
2016-Jun-25 21:33N 44°05' E 009°49'0 0.0
2016-Jun-25 20:33N 44°05' E 009°49'0 0.0
2016-Jun-25 19:29N 44°05' E 009°49'0 0.0
2016-Jun-25 18:32N 44°05' E 009°49'0 0.0
2016-Jun-25 17:32N 44°05' E 009°49'0 0.0
2016-Jun-25 16:31N 44°05' E 009°49'3 2.9
2016-Jun-25 15:33N 44°03' E 009°52'8 7.6
2016-Jun-25 14:33N 43°56' E 009°51'4 4.0
2016-Jun-25 13:33N 43°52' E 009°51'0 0.1
2016-Jun-25 12:33N 43°52' E 009°51'2 2.3
2016-Jun-25 11:34N 43°53' E 009°53'5 4.7
2016-Jun-25 10:33N 43°50' E 009°49'0 0.1
2016-Jun-25 09:33N 43°50' E 009°49'2 2.4
2016-Jun-25 08:33N 43°52' E 009°51'4 3.6
2016-Jun-25 07:33N 43°55' E 009°51'8 8.2
2016-Jun-25 06:33N 44°04' E 009°51'2 2.1
2016-Jun-25 05:32N 44°05' E 009°49'0 0.0
2016-Jun-25 04:28N 44°05' E 009°49'0 0.0
2016-Jun-25 03:31N 44°05' E 009°49'0 0.0
2016-Jun-25 02:34N 44°05' E 009°49'0 0.0
2016-Jun-25 01:33N 44°05' E 009°49'0 0.0
2016-Jun-25 00:33N 44°05' E 009°49'0 0.0
2016-Jun-24 23:32N 44°05' E 009°49'0 0.0
2016-Jun-24 22:32N 44°05' E 009°49'0 0.0
2016-Jun-24 21:31N 44°05' E 009°49'0 0.0
2016-Jun-24 20:31N 44°05' E 009°49'0 0.0
2016-Jun-24 19:34N 44°05' E 009°49'0 0.0
2016-Jun-24 18:33N 44°05' E 009°49'0 0.0
2016-Jun-24 17:30N 44°05' E 009°49'0 0.0
2016-Jun-24 16:32N 44°05' E 009°49'6 5.7
2016-Jun-24 15:33N 43°60' E 009°51'8 7.7
2016-Jun-24 14:33N 43°52' E 009°50'1 1.2
2016-Jun-24 13:33N 43°51' E 009°50'0 0.0
2016-Jun-24 12:33N 43°51' E 009°50'0 0.0
2016-Jun-24 11:33N 43°51' E 009°50'7 7.2
2016-Jun-24 10:33N 43°46' E 009°43'2 2.4
2016-Jun-24 09:33N 43°44' E 009°41'5 4.8
2016-Jun-24 08:33N 43°48' E 009°44'8 8.1
2016-Jun-24 07:33N 43°56' E 009°49'10 3.1
2016-Jun-24 04:28N 44°05' E 009°49'0 0.0
2016-Jun-24 03:31N 44°05' E 009°49'0 0.0
2016-Jun-24 02:33N 44°05' E 009°49'0 0.0
2016-Jun-24 01:33N 44°05' E 009°49'0 0.0
2016-Jun-24 00:32N 44°05' E 009°49'0 0.0
2016-Jun-23 23:29N 44°05' E 009°49'0 0.0
2016-Jun-23 22:28N 44°05' E 009°49'0 0.0
2016-Jun-23 21:31N 44°05' E 009°49'0 0.0
2016-Jun-23 20:28N 44°05' E 009°49'0 0.0
2016-Jun-23 19:33N 44°05' E 009°49'0 0.0
2016-Jun-23 18:33N 44°05' E 009°49'0 0.0
2016-Jun-23 17:29N 44°05' E 009°49'2 2.4
2016-Jun-23 16:33N 44°04' E 009°52'8 7.7
2016-Jun-23 15:33N 43°56' E 009°51'6 6.0
2016-Jun-23 14:33N 43°50' E 009°50'0 0.0
2016-Jun-23 13:33N 43°50' E 009°50'0 0.0
2016-Jun-23 12:33N 43°50' E 009°50'0 0.0
2016-Jun-23 11:33N 43°50' E 009°50'1 1.4
2016-Jun-23 10:33N 43°51' E 009°51'0 0.1
2016-Jun-23 09:33N 43°51' E 009°51'0 0.2
2016-Jun-23 08:33N 43°52' E 009°51'7 6.5
2016-Jun-23 07:33N 43°58' E 009°52'7 3.7
2016-Jun-23 05:33N 44°05' E 009°49'0 0.0
2016-Jun-23 04:32N 44°05' E 009°49'0 0.0
2016-Jun-23 03:29N 44°05' E 009°49'0 0.0
2016-Jun-23 02:31N 44°05' E 009°49'0 0.0
2016-Jun-23 01:28N 44°05' E 009°49'0 0.0
2016-Jun-23 00:33N 44°05' E 009°49'0 0.0
2016-Jun-22 23:33N 44°05' E 009°49'0 0.0
2016-Jun-22 22:33N 44°05' E 009°49'0 0.0
2016-Jun-22 21:32N 44°05' E 009°49'0 0.0
2016-Jun-22 20:32N 44°05' E 009°49'0 0.0
2016-Jun-22 19:31N 44°05' E 009°49'0 0.0
2016-Jun-22 18:31N 44°05' E 009°49'0 0.0
2016-Jun-22 17:33N 44°05' E 009°49'0 0.0
2016-Jun-22 16:33N 44°05' E 009°49'6 6.4
2016-Jun-22 15:33N 43°59' E 009°52'7 7.2
2016-Jun-22 14:33N 43°52' E 009°50'0 0.4
2016-Jun-22 13:33N 43°52' E 009°51'0 0.3
2016-Jun-22 12:34N 43°52' E 009°50'0 0.4
2016-Jun-22 11:33N 43°52' E 009°51'0 0.0
2016-Jun-22 10:34N 43°52' E 009°51'0 0.4
2016-Jun-22 09:33N 43°51' E 009°51'1 1.5
2016-Jun-22 08:33N 43°53' E 009°51'8 8.2
2016-Jun-22 07:33N 44°01' E 009°52'5 4.5
2016-Jun-22 06:33N 44°05' E 009°49'0 0.0
2016-Jun-22 05:33N 44°05' E 009°49'0 0.0
2016-Jun-22 04:32N 44°05' E 009°49'0 0.0
2016-Jun-22 03:32N 44°05' E 009°49'0 0.0
2016-Jun-22 02:31N 44°05' E 009°49'0 0.0
2016-Jun-22 01:28N 44°05' E 009°49'0 0.0
2016-Jun-22 00:33N 44°05' E 009°49'0 0.0
2016-Jun-21 23:33N 44°05' E 009°49'0 0.0
2016-Jun-21 22:33N 44°05' E 009°49'0 0.0
2016-Jun-21 21:32N 44°05' E 009°49'0 0.0
2016-Jun-21 20:32N 44°05' E 009°49'0 0.0
2016-Jun-21 19:31N 44°05' E 009°49'0 0.0
2016-Jun-21 18:31N 44°05' E 009°49'0 0.0
2016-Jun-21 17:33N 44°05' E 009°49'3 2.6
2016-Jun-21 16:33N 44°03' E 009°52'8 7.6
2016-Jun-21 15:33N 43°56' E 009°51'6 6.1
2016-Jun-21 14:33N 43°50' E 009°49'0 0.2
2016-Jun-21 13:33N 43°50' E 009°49'0 0.2
2016-Jun-21 12:33N 43°50' E 009°50'1 0.9
2016-Jun-21 11:33N 43°49' E 009°48'6 6.5
2016-Jun-21 10:33N 43°45' E 009°42'1 0.7
2016-Jun-21 09:34N 43°44' E 009°41'7 6.8
2016-Jun-21 08:33N 43°51' E 009°45'8 8.0
2016-Jun-21 07:33N 43°58' E 009°50'7 2.4
2016-Jun-21 04:28N 44°05' E 009°49'0 0.0
2016-Jun-21 03:34N 44°05' E 009°49'0 0.0
2016-Jun-21 02:33N 44°05' E 009°49'0 0.0
2016-Jun-21 01:33N 44°05' E 009°49'0 0.0
2016-Jun-21 00:32N 44°05' E 009°49'0 0.0
2016-Jun-20 23:32N 44°05' E 009°49'0 0.0
2016-Jun-20 22:31N 44°05' E 009°49'0 0.0
2016-Jun-20 21:31N 44°05' E 009°49'0 0.0
2016-Jun-20 20:33N 44°05' E 009°49'0 0.0
2016-Jun-20 19:33N 44°05' E 009°49'0 0.0
2016-Jun-20 18:30N 44°05' E 009°49'0 0.0
2016-Jun-20 17:32N 44°05' E 009°49'0 0.0
2016-Jun-20 16:32N 44°05' E 009°49'0 0.0
2016-Jun-20 15:31N 44°05' E 009°49'0 0.0
2016-Jun-20 14:28N 44°05' E 009°49'0 0.0
2016-Jun-20 13:33N 44°05' E 009°49'0 0.0
2016-Jun-20 12:33N 44°05' E 009°49'0 0.0
2016-Jun-20 11:33N 44°05' E 009°49'0 0.0
2016-Jun-20 10:32N 44°05' E 009°49'0 0.0
2016-Jun-20 09:32N 44°05' E 009°49'0 0.0
2016-Jun-20 08:31N 44°05' E 009°49'0 0.0
2016-Jun-20 07:31N 44°05' E 009°49'0 0.0
2016-Jun-20 06:33N 44°05' E 009°49'0 0.0
2016-Jun-20 05:33N 44°05' E 009°49'0 0.0
2016-Jun-20 04:33N 44°05' E 009°49'0 0.0
2016-Jun-20 03:29N 44°05' E 009°49'0 0.0
2016-Jun-20 02:32N 44°05' E 009°49'0 0.0
2016-Jun-20 01:28N 44°05' E 009°49'0 0.0
2016-Jun-20 00:31N 44°05' E 009°49'0 0.0
2016-Jun-19 23:33N 44°05' E 009°49'0 0.0
2016-Jun-19 22:33N 44°05' E 009°49'0 0.0
2016-Jun-19 21:33N 44°05' E 009°49'0 0.0
2016-Jun-19 20:32N 44°05' E 009°49'0 0.0
2016-Jun-19 19:32N 44°05' E 009°49'0 0.0
2016-Jun-19 18:31N 44°05' E 009°49'0 0.0
2016-Jun-19 17:31N 44°05' E 009°49'0 0.0
2016-Jun-19 16:33N 44°05' E 009°49'0 0.0
2016-Jun-19 15:33N 44°05' E 009°49'0 0.0
2016-Jun-19 14:32N 44°05' E 009°49'0 0.0
2016-Jun-19 13:32N 44°05' E 009°49'0 0.0
2016-Jun-19 12:32N 44°05' E 009°49'0 0.0
2016-Jun-19 11:31N 44°05' E 009°49'0 0.0
2016-Jun-19 10:31N 44°05' E 009°49'0 0.0
2016-Jun-19 09:33N 44°05' E 009°49'0 0.0
2016-Jun-19 08:33N 44°05' E 009°49'0 0.0
2016-Jun-19 07:29N 44°05' E 009°49'0 0.0
2016-Jun-19 06:32N 44°05' E 009°49'0 0.0
2016-Jun-19 05:32N 44°05' E 009°49'0 0.0
2016-Jun-19 04:31N 44°05' E 009°49'0 0.0
2016-Jun-19 03:31N 44°05' E 009°49'0 0.0
2016-Jun-19 02:33N 44°05' E 009°49'0 0.0
2016-Jun-19 01:33N 44°05' E 009°49'0 0.0
2016-Jun-19 00:32N 44°05' E 009°49'0 0.0
2016-Jun-18 23:32N 44°05' E 009°49'0 0.0
2016-Jun-18 22:32N 44°05' E 009°49'0 0.0
2016-Jun-18 21:31N 44°05' E 009°49'0 0.0
2016-Jun-18 20:31N 44°05' E 009°49'0 0.0
2016-Jun-18 19:33N 44°05' E 009°49'0 0.0
2016-Jun-18 18:33N 44°05' E 009°49'0 0.0
2016-Jun-18 17:29N 44°05' E 009°49'0 0.0
2016-Jun-18 16:29N 44°05' E 009°49'0 0.0
2016-Jun-18 15:31N 44°05' E 009°49'0 0.0
2016-Jun-18 14:31N 44°05' E 009°49'0 0.0
2016-Jun-18 13:31N 44°05' E 009°49'0 0.0
2016-Jun-18 12:33N 44°05' E 009°49'0 0.0
2016-Jun-18 11:33N 44°05' E 009°49'0 0.0
2016-Jun-18 10:32N 44°05' E 009°49'0 0.0
2016-Jun-18 09:32N 44°05' E 009°49'0 0.0
2016-Jun-18 08:31N 44°05' E 009°49'0 0.0
2016-Jun-18 07:31N 44°05' E 009°49'0 0.0
2016-Jun-18 06:31N 44°05' E 009°49'0 0.0
2016-Jun-18 05:33N 44°05' E 009°49'0 0.0
2016-Jun-18 04:30N 44°05' E 009°49'0 0.0
2016-Jun-18 03:32N 44°05' E 009°49'0 0.0
2016-Jun-18 02:32N 44°05' E 009°49'0 0.0
2016-Jun-18 01:31N 44°05' E 009°49'0 0.0
2016-Jun-18 00:31N 44°05' E 009°49'0 0.0
2016-Jun-17 23:31N 44°05' E 009°49'0 0.0
2016-Jun-17 22:33N 44°05' E 009°49'0 0.0
2016-Jun-17 21:33N 44°05' E 009°49'0 0.0
2016-Jun-17 20:32N 44°05' E 009°49'  

Dump ship's entire track history